Lafayette Regional Airport
KLFT : now visible

Airfield :











YOU CAN JOIN US ON...

 
LOGIN :

Register | Disclaimer

   EN    FR    IT 

 









Legend :    VFR   Marginal VFR   IFR   Intensive IFR   Very Intensive IFR
Visi :
Ceiling :
>= 8 km
>= 3000ft
5 to 8 km
1000 to 3000 ft
1500m to 5 km
500 to 1000 ft
800 to 1500m
200 to 500 ft
< 800m
< 200 ft
Symbols :   Thunderstorms  Fog  Heavy snow  Heavy precipitations  Wind > 20 kt







- Airport Elevation : 42 ft
- IATA code : LFT


KLFT - Lafayette Regional

CURRENT METAR :
  • 190953Z AUTO 00000KT 10SM BKN120 25/24 A2999 RMK AO2 SLP153 T02500244

EXPIRED METARs :
  • 190853Z AUTO 00000KT 10SM FEW100 25/24 A2998 RMK AO2 SLP151 T02500239 53002
  • 190753Z AUTO 00000KT 10SM FEW021 26/24 A2998 RMK AO2 SLP150 T02560244

TAF KLFT
Valid from the 19 at 06:00 until the 20 at 06:00 UTC


190520Z 1906/2006 VRB03KT P6SM FEW025 SCT250
FM191400 24004KT P6SM VCSH SCT025 SCT200
FM191800 21008KT P6SM VCTS SCT035CB BKN200
FM200200 18004KT P6SM BKN250
No reported NOTAMs for that airfield.



MET'MAP, your aeronautical weather chart ! - Copyright ORBIFLY December 2007 - Disclaimer

ORBIFLY MET'MAP TEAM :

Programming & Development : Alexandra Zaïnal
Concept & Development : Baudouin d'Aumeries
Co-Development & Prog : Marc-Olivier Méhu
Technical & hardware support : Manuel Goepfert

Contact : metmap@orbifly.com




SOURCES & CREDITS :

   NOAA       Earth
Advisory